Terminal Aerodrome Forecast
Issued by NWS Cleveland, OH

Home | Current Version | Previous Version | Text Only | Print | Product List | Glossary On
Versions: 1 2 3 4 5 6 7 8 9 10 11 12 13 14 15 16 17
227
FTUS41 KCLE 161740
TAFCAK
TAF
KCAK 161740Z 1618/1718 24010KT P6SM BKN080
     FM162200 21004KT P6SM SCT080
     FM170700 18004KT 5SM BR SCT015 BKN200
     FM171000 18004KT 4SM BR OVC015
     FM171600 18006KT P6SM SCT015 BKN120=

USA.gov is the U.S. government's official web portal to all federal, state and local government web resources and services.